Time;durP1;ratioP1;P1;durP2;ratioP2;P2;SDS_P1;SDS_P2;PMS_P1;PMS_P2;Temp;Humidity;BMP_temperature;BMP_pressure;BME280_temperature;BME280_humidity;BME280_pressure;Samples;Min_cycle;Max_cycle;Signal;HPM_P1;HPM_P2
2023/04/12 00:00:34;;;;;;;14.35;2.20;;;7.40;99.90;;;;;;5045081;28;20037;-71
2023/04/12 00:03:02;;;;;;;9.50;1.90;;;7.40;99.90;;;;;;5048186;28;20120;-71
2023/04/12 00:05:29;;;;;;;14.70;2.28;;;7.40;99.90;;;;;;5044586;28;20033;-71
2023/04/12 00:07:57;;;;;;;9.27;1.90;;;7.40;99.90;;;;;;5042813;28;20080;-71
2023/04/12 00:10:22;;;;;;;9.40;2.42;;;7.50;99.90;;;;;;5065574;28;20413;-71
2023/04/12 00:12:48;;;;;;;11.25;2.20;;;7.40;99.90;;;;;;5064116;28;20045;-71
2023/04/12 00:15:14;;;;;;;10.50;1.85;;;7.40;99.90;;;;;;5048061;28;20051;-70
2023/04/12 00:17:40;;;;;;;11.65;1.98;;;7.40;99.90;;;;;;5042097;28;20038;-72
2023/04/12 00:20:15;;;;;;;12.30;2.13;;;7.40;99.90;;;;;;5041798;28;20430;-71
2023/04/12 00:22:41;;;;;;;12.05;2.47;;;7.50;99.90;;;;;;5041985;28;20051;-72
2023/04/12 00:25:07;;;;;;;12.02;2.53;;;7.50;99.90;;;;;;5046454;28;20056;-74
2023/04/12 00:27:33;;;;;;;11.10;2.08;;;7.50;99.90;;;;;;5047402;28;20048;-72
2023/04/12 00:29:59;;;;;;;10.75;2.00;;;7.50;99.90;;;;;;5040633;28;20037;-72
2023/04/12 00:32:26;;;;;;;12.55;2.25;;;7.50;99.90;;;;;;5025983;28;20064;-72
2023/04/12 00:34:52;;;;;;;9.75;2.13;;;7.50;99.90;;;;;;5045508;28;20148;-72
2023/04/12 00:37:18;;;;;;;15.25;2.30;;;7.60;99.90;;;;;;5044669;28;20049;-72
2023/04/12 00:39:44;;;;;;;8.07;2.28;;;7.60;99.90;;;;;;5044790;28;20055;-72
2023/04/12 00:42:10;;;;;;;13.05;2.40;;;7.60;99.90;;;;;;5053905;28;20045;-71
2023/04/12 00:44:36;;;;;;;12.60;2.55;;;7.70;99.90;;;;;;5043040;28;20156;-71
2023/04/12 00:47:06;;;;;;;14.77;2.72;;;7.60;99.90;;;;;;5046985;28;20119;-72
2023/04/12 00:49:33;;;;;;;11.52;2.60;;;7.70;99.90;;;;;;5039690;28;20425;-72
2023/04/12 00:52:02;;;;;;;13.60;2.55;;;7.80;99.90;;;;;;5043674;28;20049;-72
2023/04/12 00:54:29;;;;;;;13.93;2.45;;;7.80;99.90;;;;;;5043106;28;20040;-71
2023/04/12 00:56:58;;;;;;;11.57;2.40;;;7.80;99.90;;;;;;5049776;28;20062;-71
2023/04/12 00:59:25;;;;;;;12.57;3.05;;;7.80;99.90;;;;;;5044833;28;20126;-72
2023/04/12 01:01:55;;;;;;;11.15;2.45;;;7.80;99.90;;;;;;5026715;28;20504;-72
2023/04/12 01:04:25;;;;;;;8.70;2.35;;;8.30;99.90;;;;;;5041731;28;20038;-72
2023/04/12 01:07:14;;;;;;;12.68;2.67;;;8.40;99.90;;;;;;5047654;28;20111;-72
2023/04/12 01:09:43;;;;;;;9.00;2.58;;;7.90;99.90;;;;;;5048058;28;20044;-72
2023/04/12 01:12:39;;;;;;;13.98;2.33;;;7.90;99.90;;;;;;5024208;28;20126;-72
2023/04/12 01:15:09;;;;;;;10.77;2.30;;;8.00;99.90;;;;;;5040173;28;20048;-72
2023/04/12 01:17:42;;;;;;;14.68;2.83;;;8.00;99.90;;;;;;5044219;28;20147;-72
2023/04/12 01:20:15;;;;;;;14.68;2.67;;;8.00;99.90;;;;;;5046452;28;20048;-72
2023/04/12 01:23:03;;;;;;;10.82;2.40;;;8.00;99.90;;;;;;5045964;28;20037;-72
2023/04/12 01:25:37;;;;;;;10.10;2.13;;;8.00;99.90;;;;;;5040214;28;20123;-72
2023/04/12 01:28:05;;;;;;;14.02;2.63;;;8.10;99.90;;;;;;5041264;28;20463;-74
2023/04/12 01:30:32;;;;;;;11.88;3.55;;;8.00;99.90;;;;;;5024845;28;20052;-73
2023/04/12 01:33:00;;;;;;;11.45;2.40;;;8.00;99.90;;;;;;5044261;28;20040;-74
2023/04/12 01:35:30;;;;;;;10.52;2.33;;;8.00;99.90;;;;;;5023993;28;20044;-72
2023/04/12 01:37:59;;;;;;;13.52;2.63;;;8.00;99.90;;;;;;5046875;28;20563;-73
2023/04/12 01:40:28;;;;;;;13.82;2.53;;;8.00;99.90;;;;;;5036703;28;20069;-74
2023/04/12 01:43:07;;;;;;;13.82;2.65;;;8.00;99.90;;;;;;5041557;28;20060;-73
2023/04/12 01:45:33;;;;;;;10.73;2.50;;;8.00;99.90;;;;;;5051858;28;20116;-73
2023/04/12 01:48:00;;;;;;;11.18;2.78;;;8.00;99.90;;;;;;5040328;28;20098;-73
2023/04/12 01:50:53;;;;;;;14.23;2.67;;;8.00;99.90;;;;;;5043710;28;20048;-73
2023/04/12 01:53:42;;;;;;;14.43;2.88;;;8.00;99.90;;;;;;5042763;28;20073;-72
2023/04/12 01:56:09;;;;;;;7.85;2.58;;;8.00;99.90;;;;;;5051579;28;20051;-73
2023/04/12 01:58:38;;;;;;;13.45;3.40;;;8.00;99.90;;;;;;5037609;28;20032;-73
2023/04/12 02:01:05;;;;;;;11.30;2.22;;;8.00;99.90;;;;;;5048015;28;20520;-73
2023/04/12 02:03:32;;;;;;;13.43;3.10;;;8.00;99.90;;;;;;5062531;28;20106;-73
2023/04/12 02:05:58;;;;;;;12.10;2.50;;;8.00;99.90;;;;;;5046953;28;20486;-72
2023/04/12 02:08:24;;;;;;;18.40;2.60;;;8.00;99.90;;;;;;5044585;28;20036;-73
2023/04/12 02:10:51;;;;;;;11.23;2.55;;;8.00;99.90;;;;;;5058696;28;20692;-72
2023/04/12 02:13:17;;;;;;;9.35;2.22;;;8.00;99.90;;;;;;5051701;28;20044;-73
2023/04/12 02:15:43;;;;;;;12.40;2.88;;;8.00;99.90;;;;;;5049703;28;20781;-74
2023/04/12 02:18:10;;;;;;;12.63;2.60;;;8.00;99.90;;;;;;5049217;28;20075;-71
2023/04/12 02:20:36;;;;;;;11.70;2.90;;;8.00;99.90;;;;;;5047657;28;20116;-73
2023/04/12 02:23:02;;;;;;;11.52;2.25;;;8.10;99.90;;;;;;5045141;28;20477;-73
2023/04/12 02:25:27;;;;;;;9.55;1.63;;;8.10;99.90;;;;;;5049895;28;20044;-74
2023/04/12 02:27:53;;;;;;;7.72;1.98;;;8.10;99.90;;;;;;5030285;28;20543;-73
2023/04/12 02:30:19;;;;;;;9.52;2.22;;;8.10;99.90;;;;;;5050819;28;20814;-74
2023/04/12 02:32:45;;;;;;;11.35;2.22;;;8.10;99.90;;;;;;5064808;28;20036;-74
2023/04/12 02:35:17;;;;;;;11.60;2.42;;;8.60;99.90;;;;;;5049529;28;20040;-74
2023/04/12 02:37:47;;;;;;;7.22;2.00;;;8.10;99.90;;;;;;5041513;28;20092;-74
2023/04/12 02:40:14;;;;;;;10.50;2.20;;;8.20;99.90;;;;;;5049949;28;20483;-74
2023/04/12 02:42:43;;;;;;;10.27;2.10;;;8.20;99.90;;;;;;5050620;28;20071;-73
2023/04/12 02:45:10;;;;;;;9.80;2.00;;;8.20;99.90;;;;;;5048137;28;20071;-73
2023/04/12 02:47:36;;;;;;;9.48;1.70;;;8.20;99.90;;;;;;5049090;28;20040;-73
2023/04/12 02:50:03;;;;;;;13.40;2.30;;;8.20;99.90;;;;;;5049067;28;20039;-73
2023/04/12 02:52:28;;;;;;;9.13;2.25;;;8.20;99.90;;;;;;5046426;28;20094;-72
2023/04/12 02:54:55;;;;;;;9.98;2.17;;;8.20;99.90;;;;;;5051991;28;20076;-73
2023/04/12 02:57:24;;;;;;;8.30;1.77;;;8.20;99.90;;;;;;5040638;28;20103;-74
2023/04/12 02:59:52;;;;;;;12.52;1.80;;;8.20;99.90;;;;;;5045745;28;20502;-73
2023/04/12 03:02:18;;;;;;;9.40;2.05;;;8.20;99.90;;;;;;5054612;28;20044;-73
2023/04/12 03:04:45;;;;;;;9.45;1.90;;;8.20;99.90;;;;;;5061207;28;20052;-74
2023/04/12 03:07:12;;;;;;;8.23;1.70;;;8.20;99.90;;;;;;5052087;28;20527;-73
2023/04/12 03:09:41;;;;;;;8.07;1.77;;;8.20;99.90;;;;;;5046105;28;20045;-73
2023/04/12 03:12:07;;;;;;;9.68;1.98;;;8.20;99.90;;;;;;5047563;28;20052;-73
2023/04/12 03:14:32;;;;;;;12.18;2.20;;;8.30;99.90;;;;;;5049640;28;20032;-73
2023/04/12 03:16:58;;;;;;;7.63;1.60;;;8.20;99.90;;;;;;5046350;28;20544;-73
2023/04/12 03:19:24;;;;;;;10.10;2.40;;;8.20;99.90;;;;;;5053893;28;20033;-74
2023/04/12 03:21:50;;;;;;;8.30;1.77;;;8.10;99.90;;;;;;5045005;28;20116;-74
2023/04/12 03:24:16;;;;;;;7.40;1.80;;;8.20;99.90;;;;;;5045817;28;20045;-74
2023/04/12 03:26:42;;;;;;;9.32;2.22;;;8.30;99.90;;;;;;5026656;28;20052;-74
2023/04/12 03:29:08;;;;;;;9.18;2.00;;;8.20;99.90;;;;;;5055132;28;20094;-73
2023/04/12 03:31:34;;;;;;;8.05;1.75;;;8.20;99.90;;;;;;5048954;28;20072;-74
2023/04/12 03:34:00;;;;;;;7.90;1.85;;;8.20;99.90;;;;;;5042371;28;20113;-75
2023/04/12 03:36:26;;;;;;;8.00;1.80;;;8.20;99.90;;;;;;5064211;28;20036;-73
2023/04/12 03:38:52;;;;;;;5.63;1.60;;;8.20;99.90;;;;;;5048558;28;20029;-74
2023/04/12 03:41:22;;;;;;;7.00;1.80;;;8.20;99.90;;;;;;5062629;28;20397;-74
2023/04/12 03:43:47;;;;;;;6.10;1.83;;;8.20;99.90;;;;;;5050472;28;20048;-73
2023/04/12 03:46:14;;;;;;;9.63;1.88;;;8.10;99.90;;;;;;5028300;28;20048;-74
2023/04/12 03:48:41;;;;;;;6.78;1.95;;;8.10;99.90;;;;;;5051508;28;20532;-74
2023/04/12 03:51:10;;;;;;;7.47;1.70;;;8.10;99.90;;;;;;5028561;28;20202;-74
2023/04/12 03:53:37;;;;;;;10.00;1.70;;;8.10;99.90;;;;;;5048204;28;20036;-73
2023/04/12 03:56:03;;;;;;;5.82;1.55;;;8.10;99.90;;;;;;5048589;28;20096;-74
2023/04/12 03:58:30;;;;;;;9.38;1.55;;;8.10;99.90;;;;;;5044730;28;20070;-74
2023/04/12 04:00:57;;;;;;;9.32;1.80;;;8.10;99.90;;;;;;5048061;28;20424;-74
2023/04/12 04:03:25;;;;;;;8.57;1.95;;;8.10;99.90;;;;;;5027119;28;20146;-73
2023/04/12 04:05:52;;;;;;;9.60;1.90;;;8.50;99.90;;;;;;5043487;28;20452;-73
2023/04/12 04:08:18;;;;;;;8.98;2.00;;;8.00;99.90;;;;;;5044651;28;20086;-73
2023/04/12 04:10:45;;;;;;;9.18;1.95;;;8.30;99.90;;;;;;5065314;28;20115;-74
2023/04/12 04:13:10;;;;;;;10.57;1.80;;;8.00;99.90;;;;;;5054893;28;20815;-73
2023/04/12 04:15:36;;;;;;;9.35;1.60;;;8.00;99.90;;;;;;5042891;28;20079;-72
2023/04/12 04:18:02;;;;;;;9.05;2.03;;;8.00;99.90;;;;;;5054507;28;20048;-73
2023/04/12 04:20:27;;;;;;;8.63;1.85;;;8.00;99.90;;;;;;5046864;28;20048;-72
2023/04/12 04:22:53;;;;;;;8.27;1.90;;;7.90;99.90;;;;;;5058756;28;20056;-74
2023/04/12 04:25:19;;;;;;;10.50;2.58;;;8.10;99.90;;;;;;5045657;28;20076;-73
2023/04/12 04:27:45;;;;;;;9.18;2.08;;;7.90;99.90;;;;;;5044611;28;20040;-74
2023/04/12 04:30:11;;;;;;;7.97;2.00;;;7.90;99.90;;;;;;5046549;28;20054;-73
2023/04/12 04:32:38;;;;;;;10.65;2.30;;;7.90;99.90;;;;;;5039337;28;20041;-74
2023/04/12 04:35:04;;;;;;;8.23;2.45;;;7.90;99.90;;;;;;5043238;28;20044;-73
2023/04/12 04:37:30;;;;;;;11.77;2.83;;;7.90;99.90;;;;;;5024076;28;20052;-74
2023/04/12 04:39:56;;;;;;;11.27;3.55;;;7.80;99.90;;;;;;5044056;28;20452;-73
2023/04/12 04:42:23;;;;;;;10.30;3.30;;;7.80;99.90;;;;;;5050545;28;20498;-72
2023/04/12 04:44:50;;;;;;;8.77;2.80;;;7.80;99.90;;;;;;5039485;28;20064;-73
2023/04/12 04:47:16;;;;;;;13.23;3.40;;;7.80;99.90;;;;;;5049802;28;20044;-73
2023/04/12 04:49:43;;;;;;;10.00;3.20;;;7.80;99.90;;;;;;5046706;28;20699;-73
2023/04/12 04:52:09;;;;;;;10.02;3.38;;;7.80;99.90;;;;;;5027176;28;20520;-73
2023/04/12 04:54:35;;;;;;;13.57;2.97;;;7.80;99.90;;;;;;5040503;28;20048;-73
2023/04/12 04:57:01;;;;;;;12.05;3.45;;;7.80;99.90;;;;;;5024563;28;20562;-74
2023/04/12 04:59:27;;;;;;;12.18;3.17;;;7.80;99.90;;;;;;5050950;28;20033;-75
2023/04/12 05:01:53;;;;;;;15.82;3.47;;;7.80;99.90;;;;;;5030470;28;20135;-75
2023/04/12 05:04:19;;;;;;;11.70;3.67;;;7.80;99.90;;;;;;5044651;28;20507;-74
2023/04/12 05:06:45;;;;;;;11.10;2.65;;;7.70;99.90;;;;;;5043599;28;20750;-73
2023/04/12 05:09:11;;;;;;;11.05;3.40;;;7.70;99.90;;;;;;5036881;28;20131;-74
2023/04/12 05:11:36;;;;;;;10.32;3.10;;;7.70;99.90;;;;;;5044803;28;20175;-74
2023/04/12 05:14:02;;;;;;;10.30;3.13;;;7.70;99.90;;;;;;5031135;28;20140;-73
2023/04/12 05:16:28;;;;;;;12.45;3.10;;;7.90;99.90;;;;;;5035578;28;20044;-76
2023/04/12 05:18:53;;;;;;;8.88;3.08;;;7.70;99.90;;;;;;5012161;28;20044;-74
2023/04/12 05:21:19;;;;;;;12.27;3.30;;;7.60;99.90;;;;;;5029178;28;20049;-73
2023/04/12 05:23:47;;;;;;;10.55;3.25;;;7.60;99.90;;;;;;5031925;28;20742;-76
2023/04/12 05:26:13;;;;;;;13.73;3.00;;;7.60;99.90;;;;;;5035178;28;20057;-75
2023/04/12 05:28:39;;;;;;;12.65;3.42;;;7.60;99.90;;;;;;5036172;28;20070;-75
2023/04/12 05:31:05;;;;;;;10.60;3.00;;;7.60;99.90;;;;;;5050192;28;20052;-75
2023/04/12 05:33:33;;;;;;;11.25;3.00;;;7.60;99.90;;;;;;5044870;28;20041;-74
2023/04/12 05:35:59;;;;;;;9.27;2.95;;;7.60;99.90;;;;;;5045632;28;20481;-75
2023/04/12 05:38:25;;;;;;;10.07;3.10;;;7.60;99.90;;;;;;5020144;28;20052;-75
2023/04/12 05:40:50;;;;;;;7.95;2.95;;;7.50;99.90;;;;;;5039561;28;20041;-74
2023/04/12 05:43:17;;;;;;;9.90;2.90;;;7.50;99.90;;;;;;5037405;28;20507;-74
2023/04/12 05:45:42;;;;;;;11.40;3.25;;;7.60;99.90;;;;;;5049961;28;20087;-76
2023/04/12 05:48:08;;;;;;;11.07;3.58;;;7.60;99.90;;;;;;5036644;28;20079;-76
2023/04/12 05:50:34;;;;;;;10.05;3.10;;;7.50;99.90;;;;;;5042996;28;20043;-75
2023/04/12 05:53:01;;;;;;;10.35;3.30;;;7.60;99.90;;;;;;5055076;28;20418;-75
2023/04/12 05:55:27;;;;;;;10.57;3.17;;;7.50;99.90;;;;;;5036396;28;20053;-74
2023/04/12 05:57:53;;;;;;;11.48;3.40;;;7.50;99.90;;;;;;5033953;28;20053;-74
2023/04/12 06:00:20;;;;;;;15.43;3.85;;;7.50;99.90;;;;;;5052068;28;20040;-74
2023/04/12 06:02:47;;;;;;;8.77;3.33;;;7.50;99.90;;;;;;5030651;28;20736;-74
2023/04/12 06:05:15;;;;;;;11.57;3.33;;;7.50;99.90;;;;;;4999564;28;20061;-74
2023/04/12 06:07:45;;;;;;;11.77;3.83;;;7.60;99.90;;;;;;5030720;28;20399;-74
2023/04/12 06:10:14;;;;;;;11.80;3.65;;;7.50;99.90;;;;;;5011406;28;20044;-75
2023/04/12 06:12:40;;;;;;;11.88;3.40;;;7.50;99.90;;;;;;5015174;28;20076;-74
2023/04/12 06:15:06;;;;;;;8.63;3.13;;;7.50;99.90;;;;;;5016740;28;20562;-74
2023/04/12 06:17:32;;;;;;;10.82;3.42;;;7.50;99.90;;;;;;5003470;28;20107;-73
2023/04/12 06:20:00;;;;;;;14.27;3.45;;;7.50;99.90;;;;;;5008469;28;20132;-74
2023/04/12 06:22:26;;;;;;;10.40;3.38;;;7.50;99.90;;;;;;5019074;28;20114;-74
2023/04/12 06:24:51;;;;;;;9.88;3.30;;;7.60;99.90;;;;;;4999705;28;20049;-74
2023/04/12 06:27:19;;;;;;;14.13;3.42;;;7.50;99.90;;;;;;5029143;28;20516;-75
2023/04/12 06:29:45;;;;;;;10.45;3.40;;;7.50;99.90;;;;;;5011124;28;20049;-75
2023/04/12 06:32:10;;;;;;;7.85;3.10;;;7.50;99.90;;;;;;5017246;28;20076;-75
2023/04/12 06:34:36;;;;;;;11.10;3.30;;;7.50;99.90;;;;;;5010992;28;20030;-75
2023/04/12 06:37:02;;;;;;;7.15;2.70;;;7.60;99.90;;;;;;5032321;28;20111;-75
2023/04/12 06:39:28;;;;;;;13.18;3.38;;;7.50;99.90;;;;;;5014760;28;20232;-75
2023/04/12 06:41:56;;;;;;;9.35;3.03;;;7.50;99.90;;;;;;5013843;28;20033;-76
2023/04/12 06:44:22;;;;;;;10.77;3.38;;;7.50;99.90;;;;;;5031998;28;20064;-76
2023/04/12 06:46:47;;;;;;;8.52;3.03;;;7.90;99.90;;;;;;5015728;28;20403;-76
2023/04/12 06:49:13;;;;;;;11.30;3.22;;;8.10;99.90;;;;;;4999604;28;20394;-76
2023/04/12 06:51:39;;;;;;;7.95;3.15;;;7.60;99.90;;;;;;5003398;28;20060;-77
2023/04/12 06:54:04;;;;;;;9.10;3.30;;;7.50;99.90;;;;;;5034219;28;20037;-76
2023/04/12 06:56:30;;;;;;;9.10;2.78;;;7.50;99.90;;;;;;5044912;28;20796;-77
2023/04/12 06:58:57;;;;;;;8.65;2.90;;;7.50;99.90;;;;;;5013082;28;20068;-76
2023/04/12 07:01:23;;;;;;;6.93;2.67;;;7.50;99.90;;;;;;5002875;28;20110;-75
2023/04/12 07:03:49;;;;;;;8.48;3.08;;;7.50;99.90;;;;;;5032615;28;20852;-76
2023/04/12 07:06:14;;;;;;;9.10;3.13;;;7.50;99.90;;;;;;5015136;28;20037;-75
2023/04/12 07:08:40;;;;;;;9.00;3.28;;;7.50;99.90;;;;;;5019512;28;20071;-76
2023/04/12 07:11:06;;;;;;;12.77;3.58;;;7.50;99.90;;;;;;5040235;28;20048;-76
2023/04/12 07:13:31;;;;;;;8.85;3.65;;;7.50;99.90;;;;;;5036858;28;20432;-75
2023/04/12 07:15:59;;;;;;;7.85;2.92;;;7.50;99.90;;;;;;5043813;28;20045;-76
2023/04/12 07:18:25;;;;;;;8.63;3.20;;;7.50;99.90;;;;;;5008098;28;20064;-76
2023/04/12 07:20:55;;;;;;;8.63;3.15;;;7.70;99.90;;;;;;5029314;28;20149;-75
2023/04/12 07:23:21;;;;;;;7.05;3.13;;;7.50;99.90;;;;;;5013478;28;20130;-76
2023/04/12 07:25:47;;;;;;;7.70;3.15;;;7.60;99.90;;;;;;5027657;28;20045;-76
2023/04/12 07:28:13;;;;;;;8.70;3.47;;;7.50;99.90;;;;;;5035807;28;20051;-76
2023/04/12 07:30:39;;;;;;;9.52;3.05;;;7.60;99.90;;;;;;5025267;28;20041;-76
2023/04/12 07:33:05;;;;;;;7.43;3.03;;;7.60;99.90;;;;;;5043440;28;20402;-77
2023/04/12 07:35:32;;;;;;;8.50;3.55;;;7.60;99.90;;;;;;5029121;28;20048;-77
2023/04/12 07:37:58;;;;;;;8.25;3.42;;;7.60;99.90;;;;;;5021260;28;20036;-78
2023/04/12 07:40:24;;;;;;;10.57;3.42;;;7.60;99.90;;;;;;5043553;28;20052;-77
2023/04/12 07:42:50;;;;;;;9.38;3.40;;;7.60;99.90;;;;;;5035006;28;20114;-76
2023/04/12 07:45:16;;;;;;;9.30;3.42;;;7.60;99.90;;;;;;5024926;28;20045;-77
2023/04/12 07:47:41;;;;;;;8.25;3.80;;;7.70;99.90;;;;;;5039874;28;20051;-78
2023/04/12 07:50:08;;;;;;;9.75;2.92;;;7.60;99.90;;;;;;5043736;28;20033;-77
2023/04/12 07:52:33;;;;;;;5.97;3.30;;;7.70;99.90;;;;;;5036390;28;20507;-77
2023/04/12 07:54:59;;;;;;;10.18;3.70;;;7.70;99.90;;;;;;5035825;28;20124;-76
2023/04/12 07:57:25;;;;;;;8.82;3.38;;;7.70;99.90;;;;;;5034623;28;20414;-77
2023/04/12 07:59:51;;;;;;;5.53;2.90;;;7.70;99.90;;;;;;5040008;28;20429;-76
2023/04/12 08:02:23;;;;;;;9.95;3.35;;;7.70;99.90;;;;;;5052780;28;20044;-75
2023/04/12 08:04:50;;;;;;;8.00;3.60;;;7.80;99.90;;;;;;5036318;28;20052;-78
2023/04/12 08:07:15;;;;;;;7.95;3.55;;;7.80;99.90;;;;;;5019222;28;20056;-75
2023/04/12 08:09:41;;;;;;;7.43;3.50;;;7.80;99.90;;;;;;5041183;28;20044;-76
2023/04/12 08:12:07;;;;;;;6.45;3.67;;;7.80;99.90;;;;;;5030257;28;20097;-77
2023/04/12 08:14:33;;;;;;;7.18;3.42;;;7.80;99.90;;;;;;5058907;28;20667;-77
2023/04/12 08:16:59;;;;;;;7.15;3.38;;;7.80;99.90;;;;;;5048829;28;20033;-76
2023/04/12 08:19:25;;;;;;;7.82;3.60;;;7.90;99.90;;;;;;5045111;28;20041;-77
2023/04/12 08:21:51;;;;;;;7.22;3.97;;;7.90;99.90;;;;;;5043398;28;20421;-75
2023/04/12 08:24:17;;;;;;;6.22;3.50;;;7.90;99.90;;;;;;5040626;28;20541;-76
2023/04/12 08:26:42;;;;;;;5.95;3.35;;;7.90;99.90;;;;;;5044925;28;20052;-76
2023/04/12 08:29:08;;;;;;;6.80;3.40;;;7.90;99.90;;;;;;5039070;28;20083;-74
2023/04/12 08:31:34;;;;;;;8.45;3.60;;;7.90;99.90;;;;;;5039907;28;20041;-75
2023/04/12 08:34:02;;;;;;;6.43;3.70;;;8.00;99.90;;;;;;5033373;28;20083;-76
2023/04/12 08:36:28;;;;;;;6.88;3.50;;;7.90;99.90;;;;;;5044814;28;20037;-75
2023/04/12 08:39:00;;;;;;;6.47;3.75;;;8.30;99.90;;;;;;5042508;28;20044;-75
2023/04/12 08:41:26;;;;;;;5.53;3.80;;;8.00;99.90;;;;;;5045170;28;20057;-76
2023/04/12 08:43:54;;;;;;;5.75;3.67;;;8.00;99.90;;;;;;5036057;28;20063;-76
2023/04/12 08:46:20;;;;;;;5.93;3.88;;;8.10;99.90;;;;;;5031123;28;20140;-76
2023/04/12 08:48:53;;;;;;;11.32;4.38;;;8.00;99.90;;;;;;5016171;28;20387;-75
2023/04/12 08:51:20;;;;;;;6.93;4.05;;;8.00;99.90;;;;;;5027986;28;20087;-75
2023/04/12 08:53:47;;;;;;;9.80;4.88;;;8.00;99.90;;;;;;5016212;28;20079;-76
2023/04/12 08:56:13;;;;;;;6.63;3.90;;;8.10;99.90;;;;;;5031800;28;20128;-76
2023/04/12 08:58:41;;;;;;;7.82;4.80;;;8.00;99.90;;;;;;5035451;28;20124;-75
2023/04/12 09:01:14;;;;;;;8.77;5.18;;;8.20;99.90;;;;;;5042394;28;20106;-76
2023/04/12 09:03:43;;;;;;;9.18;5.05;;;8.10;99.90;;;;;;5036166;28;20116;-77
2023/04/12 09:06:10;;;;;;;8.45;5.88;;;8.10;99.90;;;;;;5051923;28;20513;-76
2023/04/12 09:08:36;;;;;;;8.48;5.40;;;8.20;99.90;;;;;;5044628;28;20033;-75
2023/04/12 09:11:19;;;;;;;8.55;5.25;;;8.20;99.90;;;;;;5046558;28;20048;-76
2023/04/12 09:13:45;;;;;;;7.20;5.20;;;8.20;99.90;;;;;;5030143;28;20037;-76
2023/04/12 09:16:11;;;;;;;8.05;5.45;;;8.20;99.90;;;;;;5049931;28;20394;-75
2023/04/12 09:18:50;;;;;;;7.53;5.22;;;8.20;99.90;;;;;;5051759;28;20037;-76
2023/04/12 09:21:17;;;;;;;10.68;5.95;;;8.30;99.90;;;;;;5051322;28;20041;-75
2023/04/12 09:23:42;;;;;;;11.10;6.28;;;8.30;99.90;;;;;;5044639;28;20414;-75
2023/04/12 09:26:09;;;;;;;8.57;6.20;;;8.30;99.90;;;;;;5043392;28;20075;-75
2023/04/12 09:28:35;;;;;;;7.85;5.97;;;8.40;99.90;;;;;;5051888;28;20057;-76
2023/04/12 09:31:02;;;;;;;8.73;6.22;;;8.50;99.90;;;;;;5043827;28;20040;-76
2023/04/12 09:33:36;;;;;;;10.48;5.80;;;8.50;99.90;;;;;;5047354;28;20560;-75
2023/04/12 09:36:16;;;;;;;8.15;6.25;;;8.60;99.90;;;;;;5049597;28;20187;-75
2023/04/12 09:39:00;;;;;;;8.25;6.15;;;8.70;99.90;;;;;;5038946;28;20040;-75
2023/04/12 09:41:30;;;;;;;11.88;6.35;;;8.70;99.90;;;;;;5047672;28;20071;-75
2023/04/12 09:44:00;;;;;;;8.55;6.28;;;8.80;99.90;;;;;;5033396;28;20052;-75
2023/04/12 09:46:26;;;;;;;8.43;5.60;;;8.80;99.90;;;;;;5029488;28;20040;-74
2023/04/12 09:48:54;;;;;;;10.13;6.32;;;8.90;99.90;;;;;;5040863;28;20040;-75
2023/04/12 09:51:33;;;;;;;9.52;6.65;;;9.00;99.90;;;;;;5027864;28;20045;-75
2023/04/12 09:54:01;;;;;;;12.48;6.05;;;9.00;99.90;;;;;;5009187;28;20095;-75
2023/04/12 09:56:29;;;;;;;12.73;5.97;;;9.10;99.90;;;;;;5051290;28;20108;-74
2023/04/12 09:59:01;;;;;;;9.52;5.85;;;9.20;99.90;;;;;;5022165;28;20045;-75
2023/04/12 10:01:29;;;;;;;8.70;6.10;;;9.30;99.90;;;;;;5024768;28;20055;-75
2023/04/12 10:03:55;;;;;;;15.98;6.55;;;9.40;99.90;;;;;;5027345;28;20041;-74
2023/04/12 10:06:21;;;;;;;9.70;5.57;;;9.50;99.90;;;;;;5020388;28;20046;-75
2023/04/12 10:08:49;;;;;;;11.55;6.22;;;9.60;99.90;;;;;;5034707;28;20052;-75
2023/04/12 10:11:16;;;;;;;11.27;5.38;;;9.60;99.90;;;;;;5028106;28;20053;-75
2023/04/12 10:13:43;;;;;;;11.63;6.32;;;9.70;99.90;;;;;;5018720;28;20052;-75
2023/04/12 10:16:09;;;;;;;11.75;4.93;;;9.80;99.90;;;;;;5042391;28;20059;-76
2023/04/12 10:18:36;;;;;;;13.10;5.00;;;9.80;99.90;;;;;;5040478;28;20049;-76
2023/04/12 10:21:03;;;;;;;7.97;4.85;;;9.80;99.90;;;;;;5040206;28;20088;-76
2023/04/12 10:23:31;;;;;;;12.00;4.00;;;9.90;99.90;;;;;;5042136;28;20513;-75
2023/04/12 10:25:58;;;;;;;13.00;4.57;;;10.00;99.90;;;;;;5048087;28;20108;-75
2023/04/12 10:28:24;;;;;;;14.30;4.88;;;10.10;99.90;;;;;;5032859;28;20040;-76
2023/04/12 10:30:53;;;;;;;11.90;4.00;;;10.10;99.90;;;;;;5026375;28;20102;-75
2023/04/12 10:33:27;;;;;;;11.70;4.18;;;10.20;99.90;;;;;;5024039;28;20048;-75
2023/04/12 10:35:55;;;;;;;11.00;3.55;;;10.30;99.90;;;;;;5050817;28;20627;-76
2023/04/12 10:38:25;;;;;;;11.45;4.20;;;10.40;99.90;;;;;;5045478;28;20049;-75
2023/04/12 10:41:11;;;;;;;14.13;4.15;;;10.50;99.90;;;;;;5035600;28;20061;-76
2023/04/12 10:43:38;;;;;;;16.15;3.65;;;10.70;99.90;;;;;;5058511;28;20037;-75
2023/04/12 10:46:05;;;;;;;10.20;2.85;;;10.70;99.90;;;;;;5038544;28;20040;-75
2023/04/12 10:48:51;;;;;;;15.30;3.58;;;10.60;99.90;;;;;;5036943;28;20041;-74
2023/04/12 10:51:27;;;;;;;14.88;3.55;;;10.80;99.90;;;;;;5030351;28;20053;-74
2023/04/12 10:54:15;;;;;;;15.07;3.45;;;11.00;99.90;;;;;;5036438;28;20136;-75
2023/04/12 10:56:42;;;;;;;15.00;2.90;;;11.10;99.90;;;;;;5029887;28;20747;-74
2023/04/12 10:59:12;;;;;;;10.82;3.00;;;11.20;99.90;;;;;;5020548;28;20748;-74
2023/04/12 11:01:39;;;;;;;13.80;3.05;;;11.20;99.90;;;;;;5019330;28;20053;-74
2023/04/12 11:04:08;;;;;;;12.55;3.25;;;11.30;99.90;;;;;;5031254;28;20052;-75
2023/04/12 11:06:58;;;;;;;11.88;3.13;;;11.40;99.90;;;;;;5049264;28;20100;-74
2023/04/12 11:09:33;;;;;;;14.23;2.47;;;11.50;99.90;;;;;;5042988;28;20329;-75
2023/04/12 11:12:07;;;;;;;14.98;2.63;;;11.60;99.90;;;;;;5048653;28;20406;-74
2023/04/12 11:14:44;;;;;;;19.50;2.80;;;11.80;99.90;;;;;;5015422;28;20697;-74
2023/04/12 11:17:15;;;;;;;16.92;2.60;;;11.80;99.90;;;;;;5018722;28;20443;-74
2023/04/12 11:19:58;;;;;;;;;;;11.90;99.90;;;;;;5044019;28;20107;-74
2023/04/12 11:22:26;;;;;;;12.02;2.28;;;11.90;99.90;;;;;;5024978;28;19924;-74
2023/04/12 11:24:55;;;;;;;14.38;2.55;;;11.90;99.90;;;;;;5024832;28;20107;-74
2023/04/12 11:27:22;;;;;;;16.10;2.70;;;12.00;99.90;;;;;;5032655;28;20060;-74
2023/04/12 11:29:54;;;;;;;21.55;2.83;;;12.00;99.90;;;;;;5034828;28;20056;-75
2023/04/12 11:32:22;;;;;;;17.48;2.90;;;11.90;99.90;;;;;;5039381;28;20132;-74
2023/04/12 11:34:48;;;;;;;14.95;2.63;;;11.90;99.90;;;;;;5028204;28;20053;-74
2023/04/12 11:37:14;;;;;;;15.48;2.78;;;11.80;99.90;;;;;;5041754;28;20105;-74
2023/04/12 11:39:43;;;;;;;18.52;2.90;;;11.80;99.90;;;;;;5042802;28;20056;-74
2023/04/12 11:42:19;;;;;;;17.20;2.70;;;11.80;99.90;;;;;;5030916;28;20052;-74
2023/04/12 11:44:45;;;;;;;15.07;2.35;;;11.80;99.90;;;;;;5036590;28;20041;-74
2023/04/12 11:47:16;;;;;;;16.95;2.90;;;11.80;99.90;;;;;;5026723;28;20053;-74
2023/04/12 11:49:49;;;;;;;18.45;2.40;;;11.80;99.90;;;;;;5032014;28;20068;-74
2023/04/12 11:52:17;;;;;;;15.02;2.47;;;11.70;99.90;;;;;;5028006;28;20439;-74
2023/04/12 11:54:47;;;;;;;16.60;2.47;;;11.70;99.90;;;;;;5022031;28;20045;-74
2023/04/12 11:57:15;;;;;;;17.23;2.45;;;11.60;99.90;;;;;;5029572;28;20493;-74
2023/04/12 11:59:46;;;;;;;14.18;2.30;;;11.60;99.90;;;;;;5007593;28;20444;-74
2023/04/12 12:02:13;;;;;;;16.60;2.85;;;11.60;99.90;;;;;;5026700;28;20049;-74
2023/04/12 12:04:41;;;;;;;20.10;3.00;;;11.60;99.90;;;;;;5041585;28;20043;-74
2023/04/12 12:07:07;;;;;;;16.98;2.35;;;11.50;99.90;;;;;;5030379;28;20051;-74
2023/04/12 12:09:34;;;;;;;11.15;1.88;;;11.50;99.90;;;;;;5025133;28;20044;-75
2023/04/12 12:12:00;;;;;;;13.45;2.15;;;11.60;99.90;;;;;;5022208;28;20102;-74
2023/04/12 12:14:26;;;;;;;15.93;2.45;;;11.60;99.90;;;;;;5024388;28;20044;-74
2023/04/12 12:16:58;;;;;;;12.07;2.13;;;11.60;99.90;;;;;;5008883;28;20137;-74
2023/04/12 12:19:32;;;;;;;13.55;2.03;;;11.60;99.90;;;;;;5019606;28;20044;-74
2023/04/12 12:22:10;;;;;;;21.00;2.53;;;11.60;99.90;;;;;;5038286;28;20044;-74
2023/04/12 12:24:38;;;;;;;13.63;2.45;;;11.60;99.90;;;;;;5038058;28;20771;-74
2023/04/12 12:27:03;;;;;;;12.85;2.35;;;11.60;99.90;;;;;;5020031;28;20144;-74
2023/04/12 12:29:39;;;;;;;13.52;2.70;;;11.70;99.90;;;;;;5010060;28;20120;-75
2023/04/12 12:32:12;;;;;;;21.13;2.80;;;11.70;99.90;;;;;;5030025;28;20033;-74
2023/04/12 12:34:39;;;;;;;20.23;3.03;;;11.70;99.90;;;;;;5046588;28;20071;-74
2023/04/12 12:37:12;;;;;;;20.30;3.08;;;11.70;99.90;;;;;;5017168;28;20045;-74
2023/04/12 12:39:38;;;;;;;21.33;2.92;;;11.70;99.90;;;;;;5027801;28;20057;-74
2023/04/12 12:42:07;;;;;;;15.75;3.13;;;11.70;99.90;;;;;;5028505;28;20053;-74
2023/04/12 12:44:32;;;;;;;13.68;2.70;;;11.70;99.90;;;;;;5041353;28;20052;-72
2023/04/12 12:47:00;;;;;;;17.52;2.58;;;11.70;99.90;;;;;;5036400;28;20048;-73
2023/04/12 12:49:25;;;;;;;15.82;2.53;;;11.70;99.90;;;;;;5043859;28;20059;-73
2023/04/12 12:51:51;;;;;;;16.88;2.42;;;11.70;99.90;;;;;;5017922;28;20037;-73
2023/04/12 12:54:17;;;;;;;11.65;2.15;;;11.60;99.90;;;;;;5029469;28;20131;-74